createdAt,value
2019-03-29T00:02:11.652Z,91.25
2019-03-29T00:07:15.996Z,100.65
2019-03-29T00:12:19.347Z,105.00
2019-03-29T00:17:26.054Z,95.70
2019-03-29T00:22:29.472Z,92.62
2019-03-29T00:27:32.913Z,88.12
2019-03-29T00:32:36.286Z,89.62
2019-03-29T00:37:53.008Z,90.77
2019-03-29T00:42:47.476Z,86.30
2019-03-29T00:47:51.496Z,90.90
2019-03-29T00:52:55.174Z,94.80
2019-03-29T00:58:00.759Z,84.28
2019-03-29T01:03:04.472Z,86.78
2019-03-29T01:08:13.670Z,84.05
2019-03-29T01:13:17.253Z,87.37
2019-03-29T01:18:21.748Z,79.87
2019-03-29T01:23:28.138Z,80.72
2019-03-29T01:28:32.232Z,80.92
2019-03-29T01:33:44.104Z,79.12
2019-03-29T01:38:47.957Z,78.85
2019-03-29T01:43:57.987Z,86.05
2019-03-29T01:49:05.572Z,77.87
2019-03-29T01:54:13.411Z,84.62
2019-03-29T01:59:17.851Z,84.90
2019-03-29T02:04:25.830Z,84.62
2019-03-29T02:09:30.271Z,86.82
2019-03-29T02:14:35.401Z,85.42
2019-03-29T02:19:38.895Z,85.72
2019-03-29T02:24:42.325Z,83.40
2019-03-29T02:29:47.495Z,82.57
2019-03-29T02:34:52.630Z,76.33
2019-03-29T02:39:56.034Z,78.07
2019-03-29T02:45:03.516Z,80.10
2019-03-29T02:50:09.267Z,73.00
2019-03-29T02:55:14.145Z,77.80
2019-03-29T03:00:17.553Z,78.00
2019-03-29T03:05:22.934Z,73.25
2019-03-29T03:10:32.599Z,73.75
2019-03-29T03:15:35.965Z,73.92
2019-03-29T03:20:43.957Z,70.87
2019-03-29T03:25:49.684Z,71.15
2019-03-29T03:31:04.338Z,69.30
2019-03-29T03:36:09.120Z,71.57
2019-03-29T03:41:17.415Z,68.78
2019-03-29T03:46:20.922Z,75.15
2019-03-29T03:51:24.622Z,71.62
2019-03-29T03:56:30.273Z,72.22
2019-03-29T04:01:34.424Z,71.50
2019-03-29T04:06:38.422Z,73.28
2019-03-29T04:11:41.846Z,81.70
2019-03-29T04:16:45.985Z,74.65
2019-03-29T04:21:49.403Z,71.72
2019-03-29T04:26:53.761Z,71.28
2019-03-29T04:31:57.559Z,77.08
2019-03-29T04:37:00.944Z,71.12
2019-03-29T04:42:04.454Z,69.35
2019-03-29T04:47:07.844Z,69.35
2019-03-29T04:52:11.354Z,71.72
2019-03-29T04:57:14.657Z,72.27
2019-03-29T05:02:18.134Z,73.30
2019-03-29T05:07:21.506Z,75.22
2019-03-29T05:12:25.029Z,76.15
2019-03-29T05:17:34.181Z,73.25
2019-03-29T05:22:39.653Z,77.12
2019-03-29T05:27:43.138Z,80.70
2019-03-29T05:32:52.442Z,78.02
2019-03-29T05:37:58.271Z,73.92
2019-03-29T05:43:04.378Z,72.03
2019-03-29T05:53:52.779Z,60.83
2019-03-29T05:59:03.489Z,65.08
2019-03-29T06:04:09.707Z,64.90
2019-03-29T06:09:13.200Z,58.30
2019-03-29T06:14:18.939Z,63.52
2019-03-29T06:19:22.226Z,64.53
2019-03-29T06:24:27.734Z,61.90
2019-03-29T06:29:31.269Z,60.17
2019-03-29T06:34:36.102Z,56.80
2019-03-29T06:39:48.318Z,60.52
2019-03-29T06:44:52.135Z,60.85
2019-03-29T06:49:55.523Z,54.77
2019-03-29T06:55:02.737Z,56.85
2019-03-29T07:00:09.470Z,50.63
2019-03-29T07:05:17.160Z,50.33
2019-03-29T07:10:22.559Z,47.50
2019-03-29T07:15:27.022Z,42.48
2019-03-29T07:20:32.925Z,43.40
2019-03-29T07:25:38.463Z,44.33
2019-03-29T07:30:43.468Z,42.70
2019-03-29T07:35:52.478Z,35.13
2019-03-29T07:40:56.074Z,33.43
2019-03-29T07:46:01.596Z,31.07
2019-03-29T07:51:05.619Z,33.98
2019-03-29T07:56:10.061Z,33.78
2019-03-29T08:01:18.580Z,30.35
2019-03-29T08:06:41.130Z,27.20
2019-03-29T08:11:46.863Z,28.42
2019-03-29T08:16:54.953Z,32.50
2019-03-29T08:22:32.777Z,31.60
2019-03-29T08:27:38.983Z,28.12
2019-03-29T08:32:42.706Z,25.97
2019-03-29T08:37:50.246Z,28.23
2019-03-29T08:43:11.998Z,29.18
2019-03-29T08:48:43.276Z,30.70
2019-03-29T08:53:47.228Z,28.67
2019-03-29T08:58:50.667Z,25.85
2019-03-29T09:04:04.791Z,22.07
2019-03-29T09:08:59.888Z,24.90
2019-03-29T09:14:03.575Z,27.20
2019-03-29T09:19:08.874Z,25.52
2019-03-29T09:24:21.641Z,23.67
2019-03-29T09:29:19.283Z,35.20
2019-03-29T09:34:23.206Z,23.25
2019-03-29T09:39:28.569Z,24.95
2019-03-29T09:44:32.012Z,25.30
2019-03-29T09:49:36.957Z,21.33
2019-03-29T09:54:45.342Z,22.05
2019-03-29T09:59:49.734Z,17.30
2019-03-29T10:04:54.332Z,22.82
2019-03-29T10:10:01.884Z,22.65
2019-03-29T10:15:18.096Z,19.98
2019-03-29T10:20:24.207Z,23.85
2019-03-29T10:25:27.821Z,16.93
2019-03-29T10:30:46.280Z,16.60
2019-03-29T10:35:52.693Z,20.00
2019-03-29T10:40:59.190Z,17.80
2019-03-29T10:46:05.323Z,18.62
2019-03-29T10:51:11.706Z,16.45
2019-03-29T10:56:17.212Z,14.05
2019-03-29T11:01:25.972Z,15.00
2019-03-29T11:06:32.162Z,16.62
2019-03-29T11:11:35.695Z,15.23
2019-03-29T11:22:10.780Z,15.20
2019-03-29T11:27:14.253Z,12.80
2019-03-29T11:32:19.762Z,16.40
2019-03-29T11:37:24.392Z,19.17
2019-03-29T11:42:30.226Z,16.45
2019-03-29T11:47:34.221Z,18.75
2019-03-29T11:52:41.466Z,16.80
2019-03-29T11:57:47.750Z,17.77
2019-03-29T12:02:55.919Z,18.82
2019-03-29T12:08:04.030Z,21.68
2019-03-29T12:13:08.495Z,20.32
2019-03-29T12:18:13.845Z,21.68
2019-03-29T12:23:20.009Z,20.60
2019-03-29T12:28:30.160Z,19.48
2019-03-29T12:33:38.102Z,16.50
2019-03-29T12:44:15.479Z,24.23
2019-03-29T12:49:23.974Z,22.90
2019-03-29T12:54:31.259Z,16.12
2019-03-29T12:59:41.709Z,15.28
2019-03-29T13:04:47.115Z,16.02
2019-03-29T13:09:51.646Z,18.55
2019-03-29T13:14:55.348Z,17.42
2019-03-29T13:25:35.347Z,13.80
2019-03-29T13:30:51.789Z,20.35
2019-03-29T13:36:03.797Z,17.07
2019-03-29T13:41:16.039Z,17.57
2019-03-29T13:46:22.644Z,19.90
2019-03-29T13:51:28.904Z,19.42
2019-03-29T13:56:36.632Z,17.17
2019-03-29T14:01:41.587Z,16.75
2019-03-29T14:06:46.288Z,16.23
2019-03-29T14:11:54.039Z,16.93
2019-03-29T14:16:59.660Z,15.15
2019-03-29T14:22:14.291Z,19.60
2019-03-29T14:27:19.488Z,20.80
2019-03-29T14:32:24.597Z,15.58
2019-03-29T14:37:28.799Z,18.15
2019-03-29T14:42:32.279Z,17.50
2019-03-29T14:47:42.924Z,15.23
2019-03-29T14:52:45.962Z,22.75
2019-03-29T14:57:49.906Z,19.40
2019-03-29T15:02:54.969Z,16.32
2019-03-29T15:07:59.414Z,16.77
2019-03-29T15:13:02.831Z,17.85
2019-03-29T15:18:09.513Z,16.80
2019-03-29T15:23:14.231Z,16.35
2019-03-29T15:28:20.853Z,18.77
2019-03-29T15:33:31.810Z,16.12
2019-03-29T15:38:35.371Z,17.37
2019-03-29T15:43:40.141Z,18.55
2019-03-29T15:48:43.946Z,17.37
2019-03-29T15:53:47.352Z,15.65
2019-03-29T15:58:51.892Z,21.35
2019-03-29T16:03:59.230Z,16.27
2019-03-29T16:09:02.656Z,21.42
2019-03-29T16:14:08.638Z,19.23
2019-03-29T16:19:12.630Z,14.28
2019-03-29T16:24:26.773Z,19.92
2019-03-29T16:29:31.112Z,19.67
2019-03-29T16:34:34.488Z,16.87
2019-03-29T16:39:38.372Z,17.92
2019-03-29T16:50:08.056Z,17.37
2019-03-29T17:00:32.264Z,16.35
2019-03-29T17:05:42.401Z,17.35
2019-03-29T17:10:45.834Z,22.42
2019-03-29T17:21:18.695Z,18.52
2019-03-29T17:31:58.752Z,22.45
2019-03-29T17:37:04.096Z,20.20
2019-03-29T17:42:08.336Z,20.92
2019-03-29T17:47:13.954Z,22.52
2019-03-29T17:52:27.696Z,26.87
2019-03-29T17:57:31.148Z,23.62
2019-03-29T18:02:35.324Z,19.48
2019-03-29T18:07:42.260Z,24.92
2019-03-29T18:12:52.817Z,30.25
2019-03-29T18:18:02.077Z,31.12
2019-03-29T18:28:21.530Z,28.27
2019-03-29T18:33:47.141Z,31.48
2019-03-29T18:38:49.977Z,29.87
2019-03-29T18:44:22.666Z,30.27
2019-03-29T18:49:35.773Z,31.57
2019-03-29T19:00:03.347Z,31.48
2019-03-29T19:05:09.514Z,32.10
2019-03-29T19:21:13.951Z,31.37
2019-03-29T19:37:35.198Z,32.08
2019-03-29T19:42:40.816Z,32.03
2019-03-29T19:48:00.884Z,31.25
2019-03-29T19:58:58.751Z,32.83
2019-03-29T20:04:03.835Z,35.53
2019-03-29T21:30:03.391Z,34.35
2019-03-29T21:35:19.622Z,33.28
2019-03-29T21:40:25.899Z,37.63
2019-03-29T21:45:32.069Z,40.48
2019-03-29T21:50:39.224Z,41.58
2019-03-29T21:55:45.930Z,42.50
2019-03-29T22:01:06.208Z,39.65
2019-03-29T22:11:42.373Z,39.58
2019-03-29T22:17:10.530Z,37.63
2019-03-29T22:22:19.247Z,38.38
2019-03-29T22:27:30.446Z,37.70
2019-03-29T22:32:39.560Z,36.58
2019-03-29T22:55:21.524Z,44.83
2019-03-29T23:00:56.761Z,46.40
2019-03-29T23:06:08.268Z,47.73
2019-03-29T23:11:22.323Z,47.75
2019-03-29T23:16:32.701Z,49.53
2019-03-29T23:21:49.905Z,49.05
2019-03-29T23:27:04.268Z,44.73
2019-03-29T23:32:08.441Z,51.75
2019-03-29T23:37:15.095Z,45.52
2019-03-29T23:42:22.878Z,50.48
2019-03-29T23:47:39.108Z,49.75
2019-03-29T23:52:44.466Z,53.98
2019-03-29T23:57:47.860Z,59.27
